Time;durP1;ratioP1;P1;durP2;ratioP2;P2;SDS_P1;SDS_P2;PMS_P1;PMS_P2;Temp;Humidity;BMP_temperature;BMP_pressure;BME280_temperature;BME280_humidity;BME280_pressure;Samples;Min_cycle;Max_cycle;Signal;HPM_P1;HPM_P2
2022/06/26 00:00:42;;;;;;;33.92;30.30;;;;;;;19.18;100.00;101150.16;5018237;28;20045;-79
2022/06/26 00:03:10;;;;;;;36.70;32.03;;;;;;;19.18;100.00;101152.81;5009642;28;20052;-78
2022/06/26 00:05:39;;;;;;;33.17;29.58;;;;;;;19.16;100.00;101147.50;5015544;28;20049;-79
2022/06/26 00:08:08;;;;;;;35.72;30.83;;;;;;;19.15;100.00;101151.13;4995888;28;20049;-78
2022/06/26 00:10:36;;;;;;;34.70;29.50;;;;;;;19.12;100.00;101147.66;5015727;28;20522;-79
2022/06/26 00:13:05;;;;;;;32.53;29.02;;;;;;;19.10;100.00;101147.69;5025325;28;20034;-79
2022/06/26 00:15:33;;;;;;;36.63;32.70;;;;;;;19.08;100.00;101144.19;5041561;28;20406;-79
2022/06/26 00:18:01;;;;;;;35.95;29.70;;;;;;;19.07;100.00;101145.09;5042980;28;20810;-79
2022/06/26 00:20:30;;;;;;;39.55;31.13;;;;;;;19.06;100.00;101149.56;5001421;28;20053;-79
2022/06/26 00:22:59;;;;;;;35.88;31.92;;;;;;;19.02;100.00;101142.56;4990095;28;20281;-79
2022/06/26 00:25:27;;;;;;;38.47;34.40;;;;;;;19.02;100.00;101131.88;5000213;28;20056;-79
2022/06/26 00:27:56;;;;;;;35.35;31.55;;;;;;;19.01;100.00;101137.25;4994642;28;20266;-79
2022/06/26 00:30:25;;;;;;;36.55;31.42;;;;;;;18.97;100.00;101131.13;5039936;28;20044;-79
2022/06/26 00:32:53;;;;;;;36.75;32.65;;;;;;;18.99;100.00;101136.44;4994414;28;20049;-79
2022/06/26 00:35:21;;;;;;;35.20;30.10;;;;;;;18.98;100.00;101130.22;5020842;28;20075;-79
2022/06/26 00:37:49;;;;;;;37.13;32.45;;;;;;;18.98;100.00;101132.88;4990430;28;20276;-78
2022/06/26 00:40:17;;;;;;;39.50;34.33;;;;;;;19.00;100.00;101127.50;5019996;28;20419;-79
2022/06/26 00:42:46;;;;;;;39.38;33.75;;;;;;;19.01;100.00;101126.56;5025690;28;20052;-79
2022/06/26 00:45:14;;;;;;;40.05;35.70;;;;;;;19.02;100.00;101131.00;4999983;28;20108;-79
2022/06/26 00:47:43;;;;;;;36.97;33.00;;;;;;;19.00;100.00;101131.06;5017133;28;20178;-79
2022/06/26 00:50:12;;;;;;;41.15;35.45;;;;;;;19.00;100.00;101124.84;5009508;28;20115;-78
2022/06/26 00:52:40;;;;;;;43.42;36.05;;;;;;;18.99;100.00;101131.94;5040407;28;20493;-79
2022/06/26 00:55:10;;;;;;;38.20;32.45;;;;;;;18.98;100.00;101126.66;4998087;28;20046;-79
2022/06/26 00:57:38;;;;;;;43.47;34.28;;;;;;;18.93;100.00;101124.13;5030845;28;20041;-78
2022/06/26 01:00:10;;;;;;;41.63;37.17;;;;;;;18.91;100.00;101123.28;4999802;28;20056;-79
2022/06/26 01:02:39;;;;;;;42.28;35.50;;;;;;;18.89;100.00;101120.66;5042625;28;20040;-79
2022/06/26 01:05:10;;;;;;;47.22;37.97;;;;;;;18.87;100.00;101119.81;5034505;28;20037;-78
2022/06/26 01:07:42;;;;;;;42.10;35.35;;;;;;;18.86;100.00;101119.84;4999413;28;20357;-79
2022/06/26 01:10:11;;;;;;;41.28;32.58;;;;;;;18.83;100.00;101110.16;5015058;28;20053;-78
2022/06/26 01:12:40;;;;;;;38.10;31.70;;;;;;;18.80;100.00;101115.56;5034541;28;20041;-79
2022/06/26 01:15:11;;;;;;;38.90;34.63;;;;;;;18.76;100.00;101108.53;5030228;28;20397;-79
2022/06/26 01:17:40;;;;;;;41.55;34.35;;;;;;;18.73;100.00;101116.59;5026157;28;20048;-79
2022/06/26 01:20:13;;;;;;;37.75;33.65;;;;;;;18.69;100.00;101113.16;5038270;28;20036;-78
2022/06/26 01:22:42;;;;;;;35.67;31.08;;;;;;;18.65;100.00;101115.94;5037404;28;20701;-79
2022/06/26 01:25:10;;;;;;;40.85;35.08;;;;;;;18.62;100.00;101110.66;4992679;28;20049;-78
2022/06/26 01:27:43;;;;;;;39.45;33.58;;;;;;;18.60;100.00;101107.16;5008641;28;20049;-78
2022/06/26 01:30:14;;;;;;;37.03;31.77;;;;;;;18.57;100.00;101112.59;5030175;28;20048;-78
2022/06/26 01:32:43;;;;;;;37.00;32.75;;;;;;;18.53;100.00;101111.78;5041462;28;20316;-78
2022/06/26 01:35:11;;;;;;;34.55;30.95;;;;;;;18.52;100.00;101118.03;5029363;28;20033;-78
2022/06/26 01:37:49;;;;;;;36.97;32.92;;;;;;;18.49;100.00;101113.66;5024454;28;20072;-78
2022/06/26 01:40:18;;;;;;;38.33;33.22;;;;;;;18.48;100.00;101103.03;5006800;28;20510;-78
2022/06/26 01:42:46;;;;;;;35.83;31.92;;;;;;;18.44;100.00;101110.22;4994460;28;20218;-78
2022/06/26 01:45:15;;;;;;;37.13;32.50;;;;;;;18.42;100.00;101111.19;5010652;28;20368;-78
2022/06/26 01:47:44;;;;;;;35.47;31.65;;;;;;;18.41;100.00;101109.41;4998499;28;20561;-78
2022/06/26 01:50:16;;;;;;;40.45;34.10;;;;;;;18.39;100.00;101105.91;5013337;28;20429;-78
2022/06/26 01:52:44;;;;;;;34.42;30.75;;;;;;;18.36;100.00;101109.56;5015997;28;20037;-78
2022/06/26 01:55:13;;;;;;;40.38;35.13;;;;;;;18.38;100.00;101112.19;5016646;28;20041;-78
2022/06/26 01:57:43;;;;;;;46.65;38.38;;;;;;;18.38;100.00;101149.53;4995299;28;20046;-78
2022/06/26 02:00:20;;;;;;;45.75;38.65;;;;;;;18.35;100.00;101150.47;5028175;28;20414;-78
2022/06/26 02:02:49;;;;;;;36.50;32.70;;;;;;;18.29;100.00;101134.63;5028924;28;20155;-78
2022/06/26 02:05:23;;;;;;;35.50;31.92;;;;;;;18.30;100.00;101141.72;4996127;28;20049;-78
2022/06/26 02:07:52;;;;;;;31.70;28.40;;;;;;;18.34;100.00;101159.41;5018867;28;20056;-78
2022/06/26 02:16:00;;;;;;;24.87;22.23;;;;;;;18.40;100.00;101147.72;5037255;28;20045;-78
2022/06/26 02:18:29;;;;;;;25.83;21.60;;;;;;;18.42;100.00;101157.41;5018080;28;20064;-78
2022/06/26 02:21:00;;;;;;;23.23;20.92;;;;;;;18.41;100.00;101158.34;5030156;28;20314;-78
2022/06/26 02:23:30;;;;;;;22.88;20.63;;;;;;;18.41;100.00;101150.34;5037496;28;20394;-78
2022/06/26 02:25:59;;;;;;;22.92;20.35;;;;;;;18.41;100.00;101166.34;5044844;28;20174;-78
2022/06/26 02:28:27;;;;;;;21.95;19.88;;;;;;;18.41;100.00;101168.13;5019809;28;20553;-79
2022/06/26 02:30:56;;;;;;;23.45;19.92;;;;;;;18.41;100.00;101168.13;5021388;28;20033;-78
2022/06/26 02:33:29;;;;;;;23.25;19.90;;;;;;;18.40;100.00;101161.06;5029661;28;20037;-78
2022/06/26 02:35:57;;;;;;;21.00;18.48;;;;;;;18.40;100.00;101161.06;5029523;28;20064;-78
2022/06/26 02:38:26;;;;;;;21.83;19.50;;;;;;;18.38;100.00;101165.53;5024717;28;20057;-78
2022/06/26 02:40:55;;;;;;;25.23;19.17;;;;;;;18.38;100.00;101170.88;5022931;28;20152;-78
2022/06/26 02:43:23;;;;;;;22.23;17.95;;;;;;;18.35;100.00;101169.16;4991333;28;20046;-78
2022/06/26 02:45:53;;;;;;;20.13;18.25;;;;;;;18.34;100.00;101172.75;5020604;28;20697;-78
2022/06/26 02:48:23;;;;;;;21.75;19.38;;;;;;;18.32;100.00;101187.91;5015787;28;20045;-78
2022/06/26 02:50:53;;;;;;;21.42;18.95;;;;;;;18.30;100.00;101195.06;4992075;28;20045;-78
2022/06/26 02:53:23;;;;;;;22.83;18.85;;;;;;;18.27;100.00;101228.00;4977281;28;20498;-78
2022/06/26 02:55:52;;;;;;;21.42;19.13;;;;;;;18.26;100.00;101236.03;5016961;28;20656;-78
2022/06/26 02:58:22;;;;;;;23.77;19.23;;;;;;;18.24;100.00;101224.53;4974635;28;20049;-79
2022/06/26 03:00:55;;;;;;;19.13;17.00;;;;;;;18.23;100.00;101213.00;5012128;28;20326;-78
2022/06/26 03:03:25;;;;;;;20.02;17.85;;;;;;;18.19;100.00;101207.78;5014889;28;20037;-78
2022/06/26 03:05:55;;;;;;;20.52;17.60;;;;;;;18.16;100.00;101206.03;5016629;28;20622;-78
2022/06/26 03:08:26;;;;;;;16.30;14.68;;;;;;;18.13;100.00;101208.78;5003828;28;20051;-78
2022/06/26 03:10:55;;;;;;;17.13;14.27;;;;;;;18.11;100.00;101184.81;5026279;28;20041;-78
2022/06/26 03:13:25;;;;;;;16.52;13.77;;;;;;;18.09;100.00;101197.31;4992273;28;20298;-79
2022/06/26 03:15:53;;;;;;;16.05;14.45;;;;;;;18.06;100.00;101185.84;5022202;28;20042;-78
2022/06/26 03:18:22;;;;;;;16.75;13.48;;;;;;;18.03;100.00;101191.22;4993219;28;20049;-78
2022/06/26 03:20:50;;;;;;;13.90;12.48;;;;;;;18.01;100.00;101177.06;5004957;28;20592;-78
2022/06/26 03:23:19;;;;;;;11.38;10.23;;;;;;;17.97;100.00;101173.56;5029262;28;20067;-77
2022/06/26 03:25:48;;;;;;;16.17;10.75;;;;;;;17.91;100.00;101179.06;4984215;28;20033;-78
2022/06/26 03:28:17;;;;;;;13.40;10.27;;;;;;;17.86;100.00;101189.84;4994953;28;20049;-78
2022/06/26 03:30:49;;;;;;;9.40;8.23;;;;;;;17.83;100.00;101194.31;5007888;28;20041;-78
2022/06/26 03:33:17;;;;;;;9.75;7.32;;;;;;;17.79;100.00;101192.59;5044791;28;20053;-78
2022/06/26 03:35:46;;;;;;;7.90;6.82;;;;;;;17.75;100.00;101183.81;5015035;28;20631;-78
2022/06/26 03:38:15;;;;;;;9.23;5.38;;;;;;;17.72;100.00;101170.53;5012710;28;20069;-78
2022/06/26 03:40:46;;;;;;;5.70;3.90;;;;;;;17.70;100.00;101170.56;5020053;28;20154;-78
2022/06/26 03:43:14;;;;;;;6.22;4.25;;;;;;;17.69;100.00;101178.59;4991870;28;20052;-78
2022/06/26 03:45:47;;;;;;;4.38;3.97;;;;;;;17.67;100.00;101186.63;5041195;28;20041;-78
2022/06/26 03:48:16;;;;;;;5.32;4.05;;;;;;;17.66;100.00;101202.66;5024934;28;20513;-78
2022/06/26 03:50:44;;;;;;;4.93;4.10;;;;;;;17.68;100.00;101203.50;5021309;28;20262;-78
2022/06/26 03:53:13;;;;;;;3.70;3.38;;;;;;;17.71;100.00;101208.75;5024150;28;20413;-78
2022/06/26 03:55:41;;;;;;;7.20;4.07;;;;;;;17.71;100.00;101215.00;5026351;28;20289;-78
2022/06/26 03:58:10;;;;;;;3.97;3.65;;;;;;;17.71;100.00;101215.00;5011563;28;20502;-78
2022/06/26 04:00:39;;;;;;;5.35;3.50;;;;;;;17.71;100.00;101228.31;4995467;28;20518;-78
2022/06/26 04:03:07;;;;;;;4.28;3.95;;;;;;;17.71;100.00;101224.75;5024288;28;20041;-78
2022/06/26 04:05:39;;;;;;;7.03;4.35;;;;;;;17.70;100.00;101220.34;5022240;28;20034;-78
2022/06/26 04:08:08;;;;;;;6.70;3.65;;;;;;;17.69;100.00;101218.56;5035890;28;20510;-78
2022/06/26 04:10:45;;;;;;;5.30;3.67;;;;;;;17.69;100.00;101221.22;5011325;28;20150;-78
2022/06/26 04:13:27;;;;;;;3.63;3.33;;;;;;;17.70;100.00;101210.56;5038905;28;20052;-78
2022/06/26 04:15:58;;;;;;;5.13;3.55;;;;;;;17.72;100.00;101213.19;5005227;28;20036;-78
2022/06/26 04:18:26;;;;;;;3.15;2.88;;;;;;;17.74;100.00;101214.03;5024530;28;20048;-79
2022/06/26 04:20:56;;;;;;;4.32;3.53;;;;;;;17.75;100.00;101213.13;5018692;28;20509;-78
2022/06/26 04:23:25;;;;;;;4.35;3.33;;;;;;;17.76;100.00;101209.53;5011322;28;20041;-78
2022/06/26 04:25:59;;;;;;;3.85;3.22;;;;;;;17.78;100.00;101207.72;5034253;28;20053;-78
2022/06/26 04:28:27;;;;;;;4.15;3.35;;;;;;;17.83;100.00;101215.66;5037572;28;20041;-79
2022/06/26 04:30:59;;;;;;;7.22;3.92;;;;;;;17.84;100.00;101223.63;4987043;28;20427;-78
2022/06/26 04:33:28;;;;;;;6.78;3.40;;;;;;;17.88;100.00;101232.44;5022832;28;20053;-78
2022/06/26 04:35:56;;;;;;;4.40;4.00;;;;;;;17.90;100.00;101223.50;5031930;28;20576;-78
2022/06/26 04:38:24;;;;;;;5.18;3.42;;;;;;;17.97;100.00;101223.38;5014538;28;20052;-78
2022/06/26 04:40:54;;;;;;;5.32;3.17;;;;;;;18.05;100.00;101222.31;5027984;28;20045;-78
2022/06/26 04:43:23;;;;;;;4.90;3.50;;;;;;;18.10;100.00;101224.84;5035155;28;20052;-78
2022/06/26 04:45:52;;;;;;;9.25;2.95;;;;;;;18.11;100.00;101218.63;4999419;28;20059;-78
2022/06/26 04:48:21;;;;;;;4.50;2.80;;;;;;;18.13;100.00;101227.47;5009411;28;20052;-78
2022/06/26 04:50:49;;;;;;;5.75;2.92;;;;;;;18.14;100.00;101234.53;5015538;28;20140;-78
2022/06/26 04:53:19;;;;;;;3.72;2.92;;;;;;;18.18;100.00;101248.69;5008097;28;20045;-78
2022/06/26 04:55:48;;;;;;;2.92;2.72;;;;;;;18.16;100.00;101248.72;4995292;28;20135;-78
2022/06/26 04:58:16;;;;;;;4.57;2.90;;;;;;;18.16;100.00;101239.84;5017705;28;20049;-78
2022/06/26 05:00:45;;;;;;;3.47;3.03;;;;;;;18.11;100.00;101247.97;4989484;28;20550;-78
2022/06/26 05:03:17;;;;;;;4.90;2.92;;;;;;;18.11;100.00;101263.97;5006008;28;20049;-78
2022/06/26 05:05:57;;;;;;;6.65;3.58;;;;;;;18.09;100.00;101271.09;5014665;28;20045;-78
2022/06/26 05:08:38;;;;;;;;;;;;;;;18.06;100.00;101288.03;5023898;28;20057;-79
2022/06/26 05:11:07;;;;;;;4.68;3.15;;;;;;;18.04;100.00;101278.31;5024759;28;19921;-78
2022/06/26 05:13:39;;;;;;;4.20;3.45;;;;;;;18.03;100.00;101282.75;4997473;28;20053;-78
2022/06/26 05:16:25;;;;;;;3.22;2.92;;;;;;;18.02;100.00;101286.34;4998844;28;20415;-78
2022/06/26 05:18:56;;;;;;;3.60;3.22;;;;;;;18.01;100.00;101289.06;5035927;28;20052;-78
2022/06/26 05:21:25;;;;;;;3.00;2.70;;;;;;;17.99;100.00;101282.88;5032911;28;20044;-78
2022/06/26 05:23:53;;;;;;;4.53;2.80;;;;;;;17.98;100.00;101284.66;5019991;28;20799;-78
2022/06/26 05:26:23;;;;;;;3.78;2.70;;;;;;;17.97;100.00;101290.91;5030985;28;20041;-79
2022/06/26 05:28:54;;;;;;;3.60;3.25;;;;;;;17.97;100.00;101300.69;5025906;28;20169;-78
2022/06/26 05:31:23;;;;;;;4.80;3.03;;;;;;;17.97;100.00;101298.03;5006753;28;20048;-78
2022/06/26 05:33:53;;;;;;;2.40;2.30;;;;;;;17.94;100.00;101293.66;4967217;28;20056;-78
2022/06/26 05:36:22;;;;;;;2.85;2.60;;;;;;;17.93;100.00;101302.53;5035435;28;20410;-79
2022/06/26 05:38:50;;;;;;;3.05;2.85;;;;;;;17.92;100.00;101304.34;5016318;28;20548;-78
2022/06/26 05:41:19;;;;;;;3.00;2.70;;;;;;;17.91;100.00;101301.69;5020342;28;20517;-78
2022/06/26 05:43:47;;;;;;;5.18;3.15;;;;;;;17.92;100.00;101299.00;4997939;28;20415;-78
2022/06/26 05:46:17;;;;;;;2.90;2.60;;;;;;;17.99;100.00;101317.53;5008957;28;20071;-78
2022/06/26 05:49:04;;;;;;;2.65;2.45;;;;;;;18.03;100.00;101319.22;4991886;28;20057;-78
2022/06/26 05:51:54;;;;;;;2.80;2.60;;;;;;;18.06;100.00;101314.72;5024433;28;20190;-78
2022/06/26 05:54:37;;;;;;;4.53;3.22;;;;;;;18.12;100.00;101321.72;5001654;28;20048;-78
2022/06/26 05:57:25;;;;;;;3.25;3.05;;;;;;;18.13;100.00;101328.81;5039068;28;20529;-78
2022/06/26 06:00:08;;;;;;;3.10;2.90;;;;;;;18.14;100.00;101332.34;5014649;28;20045;-79
2022/06/26 06:02:46;;;;;;;4.95;3.28;;;;;;;18.15;100.00;101332.31;5031479;28;20744;-78
2022/06/26 06:05:19;;;;;;;3.70;3.20;;;;;;;18.21;100.00;101342.00;4994035;28;20045;-78
2022/06/26 06:07:49;;;;;;;3.92;3.17;;;;;;;18.27;100.00;101341.84;5032738;28;20041;-78
2022/06/26 06:10:21;;;;;;;3.85;3.40;;;;;;;18.34;100.00;101354.16;5038069;28;20474;-78
2022/06/26 06:12:50;;;;;;;4.30;3.90;;;;;;;18.39;100.00;101364.72;5010399;28;20033;-79
2022/06/26 06:15:20;;;;;;;4.25;3.78;;;;;;;18.43;100.00;101363.75;5024193;28;20041;-78
2022/06/26 06:17:52;;;;;;;4.20;3.53;;;;;;;18.47;100.00;101360.13;5022732;28;20037;-79
2022/06/26 06:20:22;;;;;;;5.90;3.67;;;;;;;18.48;100.00;101370.72;4992198;28;20048;-78
2022/06/26 06:22:54;;;;;;;5.40;3.80;;;;;;;18.49;100.00;101383.19;4998029;28;20251;-79
2022/06/26 06:25:23;;;;;;;3.50;3.20;;;;;;;18.47;100.00;101374.34;5045839;28;20041;-79
2022/06/26 06:27:52;;;;;;;7.28;4.10;;;;;;;18.44;100.00;101378.84;5026487;28;20230;-78
2022/06/26 06:30:27;;;;;;;4.55;3.97;;;;;;;18.41;100.00;101377.13;5023883;28;20037;-79
2022/06/26 06:32:56;;;;;;;4.03;3.67;;;;;;;18.39;100.00;101375.41;5044037;28;20580;-78
2022/06/26 06:35:36;;;;;;;4.78;4.30;;;;;;;18.39;100.00;101386.06;4990245;28;20537;-78
2022/06/26 06:38:06;;;;;;;6.00;4.30;;;;;;;18.38;100.00;101384.31;5004054;28;20517;-78
2022/06/26 06:40:34;;;;;;;6.90;4.50;;;;;;;18.39;100.00;101383.41;5039466;28;20036;-78
2022/06/26 06:43:09;;;;;;;7.50;5.35;;;;;;;18.43;100.00;101387.75;5009764;28;20042;-78
2022/06/26 06:45:56;;;;;;;5.43;5.03;;;;;;;18.51;100.00;101385.81;5020969;28;20257;-78
2022/06/26 06:48:25;;;;;;;5.30;4.90;;;;;;;18.58;100.00;101382.13;5029528;28;20071;-79
2022/06/26 06:51:12;;;;;;;4.53;4.13;;;;;;;18.72;100.00;101399.63;5015350;28;20045;-78
2022/06/26 06:53:42;;;;;;;6.53;5.55;;;;;;;18.83;100.00;101398.50;5017088;28;20588;-78
2022/06/26 06:56:10;;;;;;;6.65;6.07;;;;;;;18.99;100.00;101395.47;5040776;28;20041;-78
2022/06/26 06:58:39;;;;;;;6.10;5.50;;;;;;;19.12;100.00;101398.75;5037981;28;20053;-79
2022/06/26 07:01:09;;;;;;;7.23;6.57;;;;;;;19.24;100.00;101393.09;5024194;28;20041;-78
2022/06/26 07:03:39;;;;;;;7.47;6.70;;;;;;;19.25;100.00;101402.88;5022243;28;20037;-79
2022/06/26 07:06:08;;;;;;;7.22;6.63;;;;;;;19.28;100.00;101409.03;4989931;28;20049;-79
2022/06/26 07:08:36;;;;;;;6.50;6.00;;;;;;;19.33;100.00;101416.06;5003916;28;20037;-79
2022/06/26 07:11:05;;;;;;;7.70;6.72;;;;;;;19.34;100.00;101410.69;5039938;28;20520;-79
2022/06/26 07:13:33;;;;;;;8.98;8.05;;;;;;;19.30;100.00;101414.34;5025260;28;20513;-80
2022/06/26 07:16:03;;;;;;;9.98;8.48;;;;;;;19.22;100.00;101422.50;5031106;28;20065;-79
2022/06/26 07:18:31;;;;;;;8.93;8.02;;;;;;;19.15;100.00;101425.38;4989922;28;20057;-79
2022/06/26 07:21:00;;;;;;;8.02;6.82;;;;;;;19.09;100.00;101424.63;5029332;28;20053;-79
2022/06/26 07:23:29;;;;;;;10.32;8.60;;;;;;;19.06;100.00;101423.81;4967542;28;20029;-78
2022/06/26 07:26:07;;;;;;;9.63;8.65;;;;;;;19.09;100.00;101429.97;5014883;28;20041;-78
2022/06/26 07:28:39;;;;;;;9.85;8.00;;;;;;;19.18;100.00;101431.53;5021016;28;20045;-79
2022/06/26 07:31:08;;;;;;;9.32;8.55;;;;;;;19.20;100.00;101439.50;5002952;28;20510;-78
2022/06/26 07:36:23;;;;;;;8.98;8.15;;;;;;;19.11;100.00;101451.31;5010244;28;20550;-79
2022/06/26 07:38:54;;;;;;;8.60;7.80;;;;;;;19.15;100.00;101452.06;5007783;28;20049;-79
2022/06/26 07:41:23;;;;;;;10.48;9.48;;;;;;;19.22;100.00;101451.03;5019558;28;20051;-78
2022/06/26 07:44:00;;;;;;;14.65;9.60;;;;;;;19.28;100.00;101454.44;5040232;28;20317;-78
2022/06/26 07:46:29;;;;;;;9.50;8.52;;;;;;;19.37;100.00;101453.34;5021988;28;20040;-78
2022/06/26 07:48:59;;;;;;;12.18;10.60;;;;;;;19.56;100.00;101452.91;5042348;28;20254;-78
2022/06/26 07:51:33;;;;;;;12.82;10.38;;;;;;;19.72;100.00;101453.41;4997551;28;20388;-78
2022/06/26 07:54:03;;;;;;;11.93;10.93;;;;;;;19.78;100.00;101454.16;5025299;28;20045;-78
2022/06/26 07:56:31;;;;;;;12.02;10.80;;;;;;;19.81;100.00;101467.47;5019337;28;20438;-79
2022/06/26 07:59:00;;;;;;;14.05;11.95;;;;;;;19.76;100.00;101469.38;5025548;28;20341;-78
2022/06/26 08:01:31;;;;;;;12.85;11.65;;;;;;;19.62;100.00;101476.81;5001774;28;20056;-78
2022/06/26 08:04:01;;;;;;;13.32;12.02;;;;;;;19.51;100.00;101486.88;5039961;28;20064;-78
2022/06/26 08:06:30;;;;;;;15.68;13.20;;;;;;;19.50;100.00;101490.47;5026420;28;20052;-78
2022/06/26 08:08:59;;;;;;;12.43;11.32;;;;;;;19.54;100.00;101495.69;4993635;28;20048;-78
2022/06/26 08:11:28;;;;;;;13.88;12.50;;;;;;;19.61;100.00;101491.09;5024408;28;20045;-78
2022/06/26 08:13:57;;;;;;;13.27;11.88;;;;;;;19.69;100.00;101489.09;5017577;28;20140;-78
2022/06/26 08:16:25;;;;;;;13.77;12.38;;;;;;;19.76;100.00;101481.88;4996865;28;20042;-79
2022/06/26 08:18:54;;;;;;;14.15;12.85;;;;;;;19.80;100.00;101488.88;5041988;28;20262;-78
2022/06/26 08:24:14;;;;;;;13.35;12.15;;;;;;;19.74;100.00;101489.91;5007065;28;20047;-79
2022/06/26 08:26:43;;;;;;;13.70;12.38;;;;;;;19.67;100.00;101494.50;4986889;28;20050;-79
2022/06/26 08:29:11;;;;;;;13.90;12.35;;;;;;;19.67;100.00;101490.94;4990967;28;20522;-80
2022/06/26 08:31:40;;;;;;;13.32;12.13;;;;;;;19.76;100.00;101498.78;4993879;28;20050;-80
2022/06/26 08:34:08;;;;;;;14.63;13.27;;;;;;;19.84;100.00;101501.25;5001111;28;20049;-79
2022/06/26 08:36:38;;;;;;;13.88;12.57;;;;;;;19.89;100.00;101509.19;4990299;28;20055;-80
2022/06/26 08:39:07;;;;;;;13.77;12.38;;;;;;;20.00;100.00;101508.00;5005080;28;20054;-80
2022/06/26 08:41:40;;;;;;;14.45;13.05;;;;;;;20.16;100.00;101508.47;4965415;28;20042;-80
2022/06/26 08:44:09;;;;;;;14.52;13.10;;;;;;;20.27;100.00;101507.31;4995453;28;20042;-79
2022/06/26 08:46:40;;;;;;;14.02;12.60;;;;;;;20.32;100.00;101508.03;5001598;28;20058;-79
2022/06/26 08:49:11;;;;;;;13.98;12.57;;;;;;;20.31;100.00;101512.53;4998051;28;20513;-79
2022/06/26 08:51:42;;;;;;;13.00;11.70;;;;;;;20.41;100.00;101515.81;4981089;28;20050;-79
2022/06/26 08:54:15;;;;;;;13.55;12.15;;;;;;;20.63;100.00;101513.47;5001805;28;20056;-79
2022/06/26 08:56:47;;;;;;;13.40;11.82;;;;;;;20.89;100.00;101520.78;4949688;28;20174;-79
2022/06/26 08:59:17;;;;;;;13.48;12.18;;;;;;;21.13;100.00;101526.31;4980657;28;20039;-79
2022/06/26 09:01:47;;;;;;;12.93;11.70;;;;;;;21.34;100.00;101528.34;4995827;28;20046;-79
2022/06/26 09:04:16;;;;;;;12.80;11.45;;;;;;;21.55;100.00;101528.63;4980676;28;20038;-79
2022/06/26 09:06:45;;;;;;;12.93;10.38;;;;;;;21.74;100.00;101532.47;4996751;28;20263;-80
2022/06/26 09:09:24;;;;;;;10.30;9.25;;;;;;;21.73;100.00;101536.06;5006835;28;20046;-80
2022/06/26 09:11:56;;;;;;;9.27;8.35;;;;;;;21.52;100.00;101547.50;4963170;28;20155;-79
2022/06/26 09:14:25;;;;;;;8.35;7.38;;;;;;;21.27;100.00;101552.72;4997688;28;20044;-79
2022/06/26 09:16:54;;;;;;;8.60;7.83;;;;;;;21.09;100.00;101555.00;4990023;28;20054;-79
2022/06/26 09:19:36;;;;;;;7.32;6.60;;;;;;;21.14;100.00;101558.44;4975589;28;20046;-80
2022/06/26 09:22:13;;;;;;;8.57;7.35;;;;;;;21.37;100.00;101557.72;4987280;28;20415;-80
2022/06/26 09:24:56;;;;;;;7.90;7.15;;;;;;;21.61;100.00;101558.81;4979241;28;20257;-80
2022/06/26 09:27:25;;;;;;;9.98;9.10;;;;;;;21.66;100.00;101564.00;5000128;28;20049;-79
2022/06/26 09:29:55;;;;;;;8.00;7.20;;;;;;;21.69;100.00;101561.25;5023444;28;20049;-78
2022/06/26 09:32:24;;;;;;;10.63;9.02;;;;;;;21.61;100.00;101564.16;5041156;28;20041;-78
2022/06/26 09:34:54;;;;;;;9.55;8.43;;;;;;;21.45;100.00;101568.25;4995473;28;20313;-78
2022/06/26 09:37:23;;;;;;;9.50;7.20;;;;;;;21.33;100.00;101569.47;5032866;28;20317;-78
2022/06/26 09:40:15;;;;;;;7.90;7.13;;;;;;;21.25;100.00;101573.28;5021794;28;20044;-78
2022/06/26 09:42:44;;;;;;;10.07;5.95;;;;;;;21.14;100.00;101585.22;4999174;28;20912;-78
2022/06/26 09:45:12;;;;;;;7.22;6.63;;;;;;;21.08;100.00;101584.50;5033771;28;20045;-78
2022/06/26 09:47:43;;;;;;;9.40;7.70;;;;;;;20.95;100.00;101590.25;5011771;28;20543;-78
2022/06/26 09:50:12;;;;;;;8.25;7.38;;;;;;;20.88;100.00;101582.41;5011789;28;20045;-78
2022/06/26 09:52:43;;;;;;;6.10;5.40;;;;;;;20.89;100.00;101578.81;5039109;28;20037;-78
2022/06/26 09:55:11;;;;;;;5.90;5.07;;;;;;;20.95;100.00;101584.00;5029006;28;20048;-77
2022/06/26 09:57:42;;;;;;;6.55;4.80;;;;;;;20.96;100.00;101583.97;5023001;28;20045;-78
2022/06/26 10:00:11;;;;;;;8.73;4.50;;;;;;;20.96;100.00;101586.66;4986484;28;20049;-77
2022/06/26 10:08:21;;;;;;;5.85;5.30;;;;;;;20.95;99.61;101587.56;5034156;28;20498;-76
2022/06/26 10:10:50;;;;;;;5.05;4.30;;;;;;;20.94;100.00;101582.25;5037828;28;20273;-77
2022/06/26 10:13:34;;;;;;;4.30;3.90;;;;;;;21.12;100.00;101575.50;5025393;28;20044;-76
2022/06/26 10:16:28;;;;;;;5.70;4.07;;;;;;;21.42;100.00;101577.25;5026388;28;20497;-76
2022/06/26 10:19:12;;;;;;;4.38;3.55;;;;;;;21.62;99.72;101570.41;5023541;28;20033;-77
2022/06/26 10:21:42;;;;;;;4.05;3.33;;;;;;;21.64;99.02;101578.41;5036022;28;20052;-77
2022/06/26 10:24:10;;;;;;;6.88;4.78;;;;;;;21.68;99.02;101582.75;5036314;28;20073;-77
2022/06/26 10:26:49;;;;;;;7.70;4.80;;;;;;;21.69;98.08;101584.50;5020191;28;20050;-77
2022/06/26 10:29:17;;;;;;;6.22;4.80;;;;;;;21.64;97.16;101584.66;5043443;28;20045;-77
2022/06/26 10:31:48;;;;;;;5.20;4.53;;;;;;;21.65;97.67;101580.19;4981346;28;20605;-80
2022/06/26 10:34:24;;;;;;;4.93;4.32;;;;;;;21.69;97.75;101584.50;5032593;28;20434;-78
2022/06/26 10:36:58;;;;;;;6.90;4.30;;;;;;;21.78;96.89;101589.59;5024219;28;20033;-78
2022/06/26 10:39:39;;;;;;;4.30;3.72;;;;;;;21.99;95.77;101591.56;5043086;28;20112;-79
2022/06/26 10:45:35;;;;;;;5.88;4.45;;;;;;;22.25;93.28;101580.88;5020662;28;20041;-78
2022/06/26 10:48:06;;;;;;;5.13;4.43;;;;;;;22.36;94.92;101584.13;5029658;28;20041;-78
2022/06/26 10:50:40;;;;;;;3.70;3.33;;;;;;;22.49;95.58;101584.56;5035717;28;20045;-79
2022/06/26 10:53:20;;;;;;;5.68;4.28;;;;;;;22.63;93.96;101586.75;5025140;28;20041;-78
2022/06/26 10:55:56;;;;;;;4.45;4.05;;;;;;;22.75;93.99;101583.66;5015824;28;20243;-78
2022/06/26 10:58:33;;;;;;;4.28;3.88;;;;;;;22.78;92.85;101586.25;5034734;28;20049;-78
2022/06/26 11:01:04;;;;;;;4.10;3.72;;;;;;;22.78;92.38;101586.25;5038627;28;20075;-78
2022/06/26 11:03:34;;;;;;;3.58;3.13;;;;;;;22.72;90.74;101583.75;4985905;28;20041;-79
2022/06/26 11:06:03;;;;;;;3.83;3.42;;;;;;;22.66;90.62;101582.16;5030172;28;20053;-78
2022/06/26 11:08:36;;;;;;;3.80;3.10;;;;;;;22.61;90.73;101583.25;5032700;28;20053;-78
2022/06/26 11:11:08;;;;;;;4.97;3.42;;;;;;;22.51;91.26;101591.66;5052323;28;20073;-78
2022/06/26 11:13:48;;;;;;;3.63;3.30;;;;;;;22.45;89.44;101594.53;5045692;28;20045;-79
2022/06/26 11:16:17;;;;;;;5.45;3.70;;;;;;;22.41;89.54;101592.03;5050934;28;20494;-78
2022/06/26 11:18:46;;;;;;;3.92;3.50;;;;;;;22.47;91.00;101586.44;5013149;28;20241;-78
2022/06/26 11:21:16;;;;;;;;;;;;;;;22.57;88.44;101583.38;5023259;28;20060;-78
2022/06/26 11:23:45;;;;;;;3.85;3.33;;;;;;;22.66;90.97;101571.41;5021512;28;20034;-78
2022/06/26 11:26:13;;;;;;;4.72;2.80;;;;;;;22.66;89.03;101571.41;5026942;28;20056;-78
2022/06/26 11:28:43;;;;;;;3.03;2.67;;;;;;;22.63;87.94;101571.53;5046510;28;20036;-78
2022/06/26 11:31:20;;;;;;;3.30;2.78;;;;;;;22.61;86.40;101577.88;5047987;28;20049;-78
2022/06/26 11:33:48;;;;;;;3.17;2.97;;;;;;;22.64;87.77;101581.34;5009648;28;20048;-78
2022/06/26 11:36:17;;;;;;;6.47;2.88;;;;;;;22.70;87.77;101585.63;5005812;28;20068;-78
2022/06/26 11:38:56;;;;;;;3.50;2.90;;;;;;;22.71;88.21;101590.94;5006990;28;20079;-78
2022/06/26 11:41:25;;;;;;;4.80;3.22;;;;;;;22.76;89.29;101588.09;5021882;28;20446;-78
2022/06/26 11:43:56;;;;;;;4.93;3.38;;;;;;;22.82;88.60;101587.00;5025895;28;20045;-78
2022/06/26 11:46:24;;;;;;;4.75;3.10;;;;;;;22.90;90.05;101590.28;5007956;28;20330;-78
2022/06/26 11:48:53;;;;;;;4.95;3.50;;;;;;;22.96;88.39;101580.16;4967269;28;20348;-77